Boudicca — C6VA3 — position and weather

sailwx.info

Track history (hours):
 
Tides and Currents Weather Stations Pressure Air Temp Water Temp Dewpoint Dewpoint Depression Visibility Wind Speed Wind Dir Waves Ship Positions

Boudicca

Last reported at 2017-Oct-26 04:47 UTC. Time now 2017-Nov-25 00:14 UTC.
Position N 30°54' E 032°19'.
Warning: this ship's position is 29 days out of date.

Length 205 m; draft 7.4 m.

Type: Passenger vessel. MMSI: 309964000.

Date/timePositionNaut miles runAvg speedWind from/ knotsBaromVisibWave heightAir tempDewpointWater temp
2017-Oct-26 04:47N 30°54' E 032°19'5 8.8
2017-Oct-26 04:16N 30°58' E 032°19'5 8.9
2017-Oct-26 03:43N 31°03' E 032°19'474 9.4
2017-Oct-24 01:24N 35°35' E 024°34'513.2
2017-Oct-24 01:00N 35°36' E 024°28'46114.7
2017-Oct-22 17:43N 35°56' E 015°00'416.6
2017-Oct-22 17:29N 35°56' E 014°55'816.4
2017-Oct-22 17:00N 35°57' E 014°46'816.0
2017-Oct-22 16:30N 35°55' E 014°36'5 1.5
2017-Oct-22 13:30N 35°54' E 014°31'0 0.0
2017-Oct-22 06:24N 35°53' E 014°31'2 4.3
2017-Oct-22 06:00N 35°54' E 014°32'5 9.6
2017-Oct-22 05:30N 35°59' E 014°30'713.5
2017-Oct-22 05:00N 36°04' E 014°25'713.4
2017-Oct-22 04:30N 36°08' E 014°18'713.4
2017-Oct-22 04:00N 36°11' E 014°10'612.9
2017-Oct-22 03:30N 36°14' E 014°03'612.8
2017-Oct-22 03:00N 36°17' E 013°56'612.7
2017-Oct-22 02:31N 36°19' E 013°49'712.9
2017-Oct-22 01:59N 36°23' E 013°42'612.9
2017-Oct-22 01:30N 36°26' E 013°35'912.9
2017-Oct-22 00:48N 36°31' E 013°26'412.7
2017-Oct-22 00:28N 36°33' E 013°21'612.9
2017-Oct-21 23:59N 36°36' E 013°15'612.7
2017-Oct-21 23:30N 36°37' E 013°07'713.2
2017-Oct-21 23:00N 36°40' E 012°60'713.2
2017-Oct-21 22:30N 36°43' E 012°52'613.1
2017-Oct-21 22:00N 36°45' E 012°45'713.1
2017-Oct-21 21:30N 36°49' E 012°38'713.9
2017-Oct-21 21:00N 36°52' E 012°31'46316.5
2017-Oct-20 16:52N 38°60' E 003°06'816.4
2017-Oct-20 16:21N 39°03' E 002°56'616.5
2017-Oct-20 16:01N 39°08' E 002°52'816.6
2017-Oct-20 15:30N 39°16' E 002°47'816.6
2017-Oct-20 15:00N 39°23' E 002°43'1110.7
2017-Oct-20 13:59N 39°33' E 002°38'0 0.0
2017-Oct-20 13:29N 39°33' E 002°38'0 0.0
2017-Oct-20 12:59N 39°33' E 002°38'0 0.0
2017-Oct-20 12:29N 39°33' E 002°38'0 0.0
2017-Oct-20 11:59N 39°33' E 002°38'0 0.0
2017-Oct-20 11:29N 39°33' E 002°38'0 0.0
2017-Oct-20 10:59N 39°33' E 002°38'0 0.0
2017-Oct-20 10:29N 39°33' E 002°38'0 0.0
2017-Oct-20 09:59N 39°33' E 002°38'0 0.0
2017-Oct-20 09:29N 39°33' E 002°38'0 0.0
2017-Oct-20 08:59N 39°33' E 002°38'0 0.0
2017-Oct-20 08:29N 39°33' E 002°38'0 0.0
2017-Oct-20 07:59N 39°33' E 002°38'0 0.0
2017-Oct-20 07:29N 39°33' E 002°38'0 0.0
2017-Oct-20 06:59N 39°33' E 002°38'0 0.0
2017-Oct-20 06:29N 39°33' E 002°38'0 0.0
2017-Oct-20 05:59N 39°33' E 002°38'0 0.3
2017-Oct-20 05:30N 39°33' E 002°38'3 5.0
2017-Oct-20 05:00N 39°31' E 002°38'5 9.6
2017-Oct-20 04:30N 39°27' E 002°34'5 9.5
2017-Oct-20 04:00N 39°23' E 002°30'5 9.6
2017-Oct-20 03:30N 39°20' E 002°26'5 9.6
2017-Oct-20 03:00N 39°16' E 002°22'16713.3
2017-Oct-19 14:23N 37°27' W 000°20'23415.3
2017-Oct-18 23:02N 36°02' W 004°52'418.5
2017-Oct-18 22:50N 36°02' W 004°57'618.1
2017-Oct-18 22:30N 36°01' W 005°04'1019.8
2017-Oct-18 22:00N 35°60' W 005°17'1019.3
2017-Oct-18 21:30N 35°57' W 005°28'250 7.6
2017-Oct-17 12:34N 38°07' W 009°56'716.0
2017-Oct-17 12:09N 38°13' W 009°58'215.9
2017-Oct-17 12:00N 38°16' W 009°59'816.4
2017-Oct-17 11:30N 38°24' W 010°01'816.4
2017-Oct-17 11:00N 38°32' W 010°03'816.0
2017-Oct-17 10:31N 38°39' W 010°06'816.3
2017-Oct-17 10:00N 38°48' W 010°07'816.0
2017-Oct-17 09:31N 38°56' W 010°08'  
Track history (hours):
 
Tides and Currents Weather Stations Pressure Air Temp Water Temp Dewpoint Dewpoint Depression Visibility Wind Speed Wind Dir Waves Ship Positions

Boudicca

Last reported at 2017-Oct-26 04:47 UTC. Time now 2017-Nov-25 00:14 UTC.
Position N 30°54' E 032°19'.
Warning: this ship's position is 29 days out of date.

Length 205 m; draft 7.4 m.

Type: Passenger vessel. MMSI: 309964000.

Date/timePositionNaut miles runAvg speedWind from/ knotsBaromVisibWave heightAir tempDewpointWater temp
2017-Oct-26 04:47N 30°54' E 032°19'5 8.8
2017-Oct-26 04:16N 30°58' E 032°19'5 8.9
2017-Oct-26 03:43N 31°03' E 032°19'474 9.4
2017-Oct-24 01:24N 35°35' E 024°34'513.2
2017-Oct-24 01:00N 35°36' E 024°28'46114.7
2017-Oct-22 17:43N 35°56' E 015°00'416.6
2017-Oct-22 17:29N 35°56' E 014°55'816.4
2017-Oct-22 17:00N 35°57' E 014°46'816.0
2017-Oct-22 16:30N 35°55' E 014°36'5 1.5
2017-Oct-22 13:30N 35°54' E 014°31'0 0.0
2017-Oct-22 06:24N 35°53' E 014°31'2 4.3
2017-Oct-22 06:00N 35°54' E 014°32'5 9.6
2017-Oct-22 05:30N 35°59' E 014°30'713.5
2017-Oct-22 05:00N 36°04' E 014°25'713.4
2017-Oct-22 04:30N 36°08' E 014°18'713.4
2017-Oct-22 04:00N 36°11' E 014°10'612.9
2017-Oct-22 03:30N 36°14' E 014°03'612.8
2017-Oct-22 03:00N 36°17' E 013°56'612.7
2017-Oct-22 02:31N 36°19' E 013°49'712.9
2017-Oct-22 01:59N 36°23' E 013°42'612.9
2017-Oct-22 01:30N 36°26' E 013°35'912.9
2017-Oct-22 00:48N 36°31' E 013°26'412.7
2017-Oct-22 00:28N 36°33' E 013°21'612.9
2017-Oct-21 23:59N 36°36' E 013°15'612.7
2017-Oct-21 23:30N 36°37' E 013°07'713.2
2017-Oct-21 23:00N 36°40' E 012°60'713.2
2017-Oct-21 22:30N 36°43' E 012°52'613.1
2017-Oct-21 22:00N 36°45' E 012°45'713.1
2017-Oct-21 21:30N 36°49' E 012°38'713.9
2017-Oct-21 21:00N 36°52' E 012°31'46316.5
2017-Oct-20 16:52N 38°60' E 003°06'816.4
2017-Oct-20 16:21N 39°03' E 002°56'616.5
2017-Oct-20 16:01N 39°08' E 002°52'816.6
2017-Oct-20 15:30N 39°16' E 002°47'816.6
2017-Oct-20 15:00N 39°23' E 002°43'1110.7
2017-Oct-20 13:59N 39°33' E 002°38'0 0.0
2017-Oct-20 13:29N 39°33' E 002°38'0 0.0
2017-Oct-20 12:59N 39°33' E 002°38'0 0.0
2017-Oct-20 12:29N 39°33' E 002°38'0 0.0
2017-Oct-20 11:59N 39°33' E 002°38'0 0.0
2017-Oct-20 11:29N 39°33' E 002°38'0 0.0
2017-Oct-20 10:59N 39°33' E 002°38'0 0.0
2017-Oct-20 10:29N 39°33' E 002°38'0 0.0
2017-Oct-20 09:59N 39°33' E 002°38'0 0.0
2017-Oct-20 09:29N 39°33' E 002°38'0 0.0
2017-Oct-20 08:59N 39°33' E 002°38'0 0.0
2017-Oct-20 08:29N 39°33' E 002°38'0 0.0
2017-Oct-20 07:59N 39°33' E 002°38'0 0.0
2017-Oct-20 07:29N 39°33' E 002°38'0 0.0
2017-Oct-20 06:59N 39°33' E 002°38'0 0.0
2017-Oct-20 06:29N 39°33' E 002°38'0 0.0
2017-Oct-20 05:59N 39°33' E 002°38'0 0.3
2017-Oct-20 05:30N 39°33' E 002°38'3 5.0
2017-Oct-20 05:00N 39°31' E 002°38'5 9.6
2017-Oct-20 04:30N 39°27' E 002°34'5 9.5
2017-Oct-20 04:00N 39°23' E 002°30'5 9.6
2017-Oct-20 03:30N 39°20' E 002°26'5 9.6
2017-Oct-20 03:00N 39°16' E 002°22'16713.3
2017-Oct-19 14:23N 37°27' W 000°20'23415.3
2017-Oct-18 23:02N 36°02' W 004°52'418.5
2017-Oct-18 22:50N 36°02' W 004°57'618.1
2017-Oct-18 22:30N 36°01' W 005°04'1019.8
2017-Oct-18 22:00N 35°60' W 005°17'1019.3
2017-Oct-18 21:30N 35°57' W 005°28'250 7.6
2017-Oct-17 12:34N 38°07' W 009°56'716.0
2017-Oct-17 12:09N 38°13' W 009°58'215.9
2017-Oct-17 12:00N 38°16' W 009°59'816.4
2017-Oct-17 11:30N 38°24' W 010°01'816.4
2017-Oct-17 11:00N 38°32' W 010°03'816.0
2017-Oct-17 10:31N 38°39' W 010°06'816.3
2017-Oct-17 10:00N 38°48' W 010°07'816.0
2017-Oct-17 09:31N 38°56' W 010°08'  

Dump ship's entire track history